Aviation Digital Data Service (ADDS)

Output produced by METARs form (0048 UTC 19 August 2019)
found at http://www.aviationweather.gov/metar/data/
 
METAR text: VAAH 190030Z 25006KT 3000 BR FEW015 SCT020 BKN080 26/25 Q1007 NOSIG
Conditions at: VAAH (AHMADABAD , IN) observed 0030 UTC 19 August 2019
Temperature: 26.0°C (79°F)
Dewpoint: 25.0°C (77°F) [RH = 94%]
Pressure (altimeter): 29.73 inches Hg (1007.0 mb)
Winds: from the WSW (250 degrees) at 7 MPH (6 knots; 3.1 m/s)
Visibility: 1.86 miles (2.99 km)
Ceiling: 8000 feet AGL
Clouds: few clouds at 1500 feet AGL
scattered clouds at 2000 feet AGL
broken clouds at 8000 feet AGL
Weather: BR  (mist)

METAR text: VAAH 190000Z 23006KT 3000 BR FEW015 SCT020 BKN080 26/25 Q1006 NOSIG
Conditions at: VAAH (AHMADABAD , IN) observed 0000 UTC 19 August 2019
Temperature: 26.0°C (79°F)
Dewpoint: 25.0°C (77°F) [RH = 94%]
Pressure (altimeter): 29.70 inches Hg (1006.0 mb)
Winds: from the SW (230 degrees) at 7 MPH (6 knots; 3.1 m/s)
Visibility: 1.86 miles (2.99 km)
Ceiling: 8000 feet AGL
Clouds: few clouds at 1500 feet AGL
scattered clouds at 2000 feet AGL
broken clouds at 8000 feet AGL
Weather: BR  (mist)

METAR text: VAAH 182330Z 23005KT 3000 BR FEW015 SCT020 BKN080 27/25 Q1006 NOSIG
Conditions at: VAAH (AHMADABAD , IN) observed 2330 UTC 18 August 2019
Temperature: 27.0°C (81°F)
Dewpoint: 25.0°C (77°F) [RH = 89%]
Pressure (altimeter): 29.70 inches Hg (1006.0 mb)
Winds: from the SW (230 degrees) at 6 MPH (5 knots; 2.6 m/s)
Visibility: 1.86 miles (2.99 km)
Ceiling: 8000 feet AGL
Clouds: few clouds at 1500 feet AGL
scattered clouds at 2000 feet AGL
broken clouds at 8000 feet AGL
Weather: BR  (mist)

METAR text: VAAH 182300Z 25005KT 3000 BR FEW015 SCT020 BKN080 27/26 Q1006 NOSIG
Conditions at: VAAH (AHMADABAD , IN) observed 2300 UTC 18 August 2019
Temperature: 27.0°C (81°F)
Dewpoint: 26.0°C (79°F) [RH = 94%]
Pressure (altimeter): 29.70 inches Hg (1006.0 mb)
Winds: from the WSW (250 degrees) at 6 MPH (5 knots; 2.6 m/s)
Visibility: 1.86 miles (2.99 km)
Ceiling: 8000 feet AGL
Clouds: few clouds at 1500 feet AGL
scattered clouds at 2000 feet AGL
broken clouds at 8000 feet AGL
Weather: BR  (mist)

METAR text: VAAH 182230Z 25005KT 3000 BR FEW015 SCT020 BKN080 27/26 Q1006 NOSIG
Conditions at: VAAH (AHMADABAD , IN) observed 2230 UTC 18 August 2019
Temperature: 27.0°C (81°F)
Dewpoint: 26.0°C (79°F) [RH = 94%]
Pressure (altimeter): 29.70 inches Hg (1006.0 mb)
Winds: from the WSW (250 degrees) at 6 MPH (5 knots; 2.6 m/s)
Visibility: 1.86 miles (2.99 km)
Ceiling: 8000 feet AGL
Clouds: few clouds at 1500 feet AGL
scattered clouds at 2000 feet AGL
broken clouds at 8000 feet AGL
Weather: BR  (mist)

METAR text: VAAH 182200Z 23005KT 3000 BR FEW015 SCT020 BKN080 27/26 Q1006 NOSIG
Conditions at: VAAH (AHMADABAD , IN) observed 2200 UTC 18 August 2019
Temperature: 27.0°C (81°F)
Dewpoint: 26.0°C (79°F) [RH = 94%]
Pressure (altimeter): 29.70 inches Hg (1006.0 mb)
Winds: from the SW (230 degrees) at 6 MPH (5 knots; 2.6 m/s)
Visibility: 1.86 miles (2.99 km)
Ceiling: 8000 feet AGL
Clouds: few clouds at 1500 feet AGL
scattered clouds at 2000 feet AGL
broken clouds at 8000 feet AGL
Weather: BR  (mist)

METAR text: VAAH 182130Z 21005KT 3000 BR FEW015 SCT020 BKN080 28/26 Q1006 NOSIG
Conditions at: VAAH (AHMADABAD , IN) observed 2130 UTC 18 August 2019
Temperature: 28.0°C (82°F)
Dewpoint: 26.0°C (79°F) [RH = 89%]
Pressure (altimeter): 29.70 inches Hg (1006.0 mb)
Winds: from the SSW (210 degrees) at 6 MPH (5 knots; 2.6 m/s)
Visibility: 1.86 miles (2.99 km)
Ceiling: 8000 feet AGL
Clouds: few clouds at 1500 feet AGL
scattered clouds at 2000 feet AGL
broken clouds at 8000 feet AGL
Weather: BR  (mist)

METAR text: VAAH 182100Z 21004KT 3000 BR FEW015 SCT020 BKN080 28/27 Q1007 NOSIG
Conditions at: VAAH (AHMADABAD , IN) observed 2100 UTC 18 August 2019
Temperature: 28.0°C (82°F)
Dewpoint: 27.0°C (81°F) [RH = 94%]
Pressure (altimeter): 29.73 inches Hg (1007.0 mb)
Winds: from the SSW (210 degrees) at 5 MPH (4 knots; 2.1 m/s)
Visibility: 1.86 miles (2.99 km)
Ceiling: 8000 feet AGL
Clouds: few clouds at 1500 feet AGL
scattered clouds at 2000 feet AGL
broken clouds at 8000 feet AGL
Weather: BR  (mist)

METAR text: VAAH 182030Z 21004KT 3000 BR FEW015 SCT020 BKN080 28/26 Q1007 NOSIG
Conditions at: VAAH (AHMADABAD , IN) observed 2030 UTC 18 August 2019
Temperature: 28.0°C (82°F)
Dewpoint: 26.0°C (79°F) [RH = 89%]
Pressure (altimeter): 29.73 inches Hg (1007.0 mb)
Winds: from the SSW (210 degrees) at 5 MPH (4 knots; 2.1 m/s)
Visibility: 1.86 miles (2.99 km)
Ceiling: 8000 feet AGL
Clouds: few clouds at 1500 feet AGL
scattered clouds at 2000 feet AGL
broken clouds at 8000 feet AGL
Weather: BR  (mist)

METAR text: VAAH 182000Z 21005KT 3000 BR FEW015 SCT020 BKN080 28/26 Q1007 NOSIG
Conditions at: VAAH (AHMADABAD , IN) observed 2000 UTC 18 August 2019
Temperature: 28.0°C (82°F)
Dewpoint: 26.0°C (79°F) [RH = 89%]
Pressure (altimeter): 29.73 inches Hg (1007.0 mb)
Winds: from the SSW (210 degrees) at 6 MPH (5 knots; 2.6 m/s)
Visibility: 1.86 miles (2.99 km)
Ceiling: 8000 feet AGL
Clouds: few clouds at 1500 feet AGL
scattered clouds at 2000 feet AGL
broken clouds at 8000 feet AGL
Weather: BR  (mist)

METAR text: VAAH 181930Z 22003KT 3000 BR FEW015 SCT020 BKN080 27/26 Q1007 NOSIG
Conditions at: VAAH (AHMADABAD , IN) observed 1930 UTC 18 August 2019
Temperature: 27.0°C (81°F)
Dewpoint: 26.0°C (79°F) [RH = 94%]
Pressure (altimeter): 29.73 inches Hg (1007.0 mb)
Winds: from the SW (220 degrees) at 3 MPH (3 knots; 1.5 m/s)
Visibility: 1.86 miles (2.99 km)
Ceiling: 8000 feet AGL
Clouds: few clouds at 1500 feet AGL
scattered clouds at 2000 feet AGL
broken clouds at 8000 feet AGL
Weather: BR  (mist)

METAR text: VAAH 181900Z 23004KT 3000 BR FEW015 SCT020 BKN080 27/26 Q1008 NOSIG
Conditions at: VAAH (AHMADABAD , IN) observed 1900 UTC 18 August 2019
Temperature: 27.0°C (81°F)
Dewpoint: 26.0°C (79°F) [RH = 94%]
Pressure (altimeter): 29.76 inches Hg (1008.0 mb)
Winds: from the SW (230 degrees) at 5 MPH (4 knots; 2.1 m/s)
Visibility: 1.86 miles (2.99 km)
Ceiling: 8000 feet AGL
Clouds: few clouds at 1500 feet AGL
scattered clouds at 2000 feet AGL
broken clouds at 8000 feet AGL
Weather: BR  (mist)

METAR text: VAAH 181830Z 21004KT 3000 BR FEW015 SCT020 BKN080 28/26 Q1008 NOSIG
Conditions at: VAAH (AHMADABAD , IN) observed 1830 UTC 18 August 2019
Temperature: 28.0°C (82°F)
Dewpoint: 26.0°C (79°F) [RH = 89%]
Pressure (altimeter): 29.76 inches Hg (1008.0 mb)
Winds: from the SSW (210 degrees) at 5 MPH (4 knots; 2.1 m/s)
Visibility: 1.86 miles (2.99 km)
Ceiling: 8000 feet AGL
Clouds: few clouds at 1500 feet AGL
scattered clouds at 2000 feet AGL
broken clouds at 8000 feet AGL
Weather: BR  (mist)

METAR text: VAAH 181800Z 22003KT 3000 BR FEW015 SCT020 BKN080 27/26 Q1008 NOSIG
Conditions at: VAAH (AHMADABAD , IN) observed 1800 UTC 18 August 2019
Temperature: 27.0°C (81°F)
Dewpoint: 26.0°C (79°F) [RH = 94%]
Pressure (altimeter): 29.76 inches Hg (1008.0 mb)
Winds: from the SW (220 degrees) at 3 MPH (3 knots; 1.5 m/s)
Visibility: 1.86 miles (2.99 km)
Ceiling: 8000 feet AGL
Clouds: few clouds at 1500 feet AGL
scattered clouds at 2000 feet AGL
broken clouds at 8000 feet AGL
Weather: BR  (mist)

METAR text: VAAH 181730Z 23005KT 3000 BR FEW015 SCT020 BKN080 27/25 Q1008 NOSIG
Conditions at: VAAH (AHMADABAD , IN) observed 1730 UTC 18 August 2019
Temperature: 27.0°C (81°F)
Dewpoint: 25.0°C (77°F) [RH = 89%]
Pressure (altimeter): 29.76 inches Hg (1008.0 mb)
Winds: from the SW (230 degrees) at 6 MPH (5 knots; 2.6 m/s)
Visibility: 1.86 miles (2.99 km)
Ceiling: 8000 feet AGL
Clouds: few clouds at 1500 feet AGL
scattered clouds at 2000 feet AGL
broken clouds at 8000 feet AGL
Weather: BR  (mist)

METAR text: VAAH 181700Z 23004KT 3000 BR FEW015 SCT020 BKN080 27/25 Q1008 NOSIG
Conditions at: VAAH (AHMADABAD , IN) observed 1700 UTC 18 August 2019
Temperature: 27.0°C (81°F)
Dewpoint: 25.0°C (77°F) [RH = 89%]
Pressure (altimeter): 29.76 inches Hg (1008.0 mb)
Winds: from the SW (230 degrees) at 5 MPH (4 knots; 2.1 m/s)
Visibility: 1.86 miles (2.99 km)
Ceiling: 8000 feet AGL
Clouds: few clouds at 1500 feet AGL
scattered clouds at 2000 feet AGL
broken clouds at 8000 feet AGL
Weather: BR  (mist)

METAR text: VAAH 181630Z 25003KT 3000 BR FEW015 SCT020 FEW025TCU BKN080 27/26 Q1008 NOSIG
Conditions at: VAAH (AHMADABAD , IN) observed 1630 UTC 18 August 2019
Temperature: 27.0°C (81°F)
Dewpoint: 26.0°C (79°F) [RH = 94%]
Pressure (altimeter): 29.76 inches Hg (1008.0 mb)
Winds: from the WSW (250 degrees) at 3 MPH (3 knots; 1.5 m/s)
Visibility: 1.86 miles (2.99 km)
Ceiling: 8000 feet AGL
Clouds: few clouds at 1500 feet AGL
scattered clouds at 2000 feet AGL
few clouds at 2500 feet AGL
broken clouds at 8000 feet AGL
Weather: BR  (mist)

METAR text: VAAH 181600Z 27003KT 3000 BR FEW012 SCT018 FEW025TCU BKN080 27/25 Q1007 NOSIG
Conditions at: VAAH (AHMADABAD , IN) observed 1600 UTC 18 August 2019
Temperature: 27.0°C (81°F)
Dewpoint: 25.0°C (77°F) [RH = 89%]
Pressure (altimeter): 29.73 inches Hg (1007.0 mb)
Winds: from the W (270 degrees) at 3 MPH (3 knots; 1.5 m/s)
Visibility: 1.86 miles (2.99 km)
Ceiling: 8000 feet AGL
Clouds: few clouds at 1200 feet AGL
scattered clouds at 1800 feet AGL
few clouds at 2500 feet AGL
broken clouds at 8000 feet AGL
Weather: BR  (mist)

METAR text: VAAH 181530Z 30006KT 3000 BR FEW012 SCT020 FEW025TCU BKN080 27/26 Q1007 TEMPO 2000
Conditions at: VAAH (AHMADABAD , IN) observed 1530 UTC 18 August 2019
Temperature: 27.0°C (81°F)
Dewpoint: 26.0°C (79°F) [RH = 94%]
Pressure (altimeter): 29.73 inches Hg (1007.0 mb)
Winds: from the WNW (300 degrees) at 7 MPH (6 knots; 3.1 m/s)
Visibility: 1.86 miles (2.99 km)
Ceiling: 8000 feet AGL
Clouds: few clouds at 1200 feet AGL
scattered clouds at 2000 feet AGL
few clouds at 2500 feet AGL
broken clouds at 8000 feet AGL
Weather: BR  (mist)

METAR text: VAAH 181500Z 09002KT 3000 -DZ FEW015 SCT020 FEW025TCU BKN080 29/27 Q1007 TEMPO 2000
Conditions at: VAAH (AHMADABAD , IN) observed 1500 UTC 18 August 2019
Temperature: 29.0°C (84°F)
Dewpoint: 27.0°C (81°F) [RH = 89%]
Pressure (altimeter): 29.73 inches Hg (1007.0 mb)
Winds: from the E (90 degrees) at 2 MPH (2 knots; 1.0 m/s)
Visibility: 1.86 miles (2.99 km)
Ceiling: 8000 feet AGL
Clouds: few clouds at 1500 feet AGL
scattered clouds at 2000 feet AGL
few clouds at 2500 feet AGL
broken clouds at 8000 feet AGL
Weather: -DZ  (light drizzle)

METAR text: VAAH 181430Z 07003KT 4000 HZ FEW015 SCT020 FEW025TCU BKN080 29/26 Q1006 TEMPO 3000
Conditions at: VAAH (AHMADABAD , IN) observed 1430 UTC 18 August 2019
Temperature: 29.0°C (84°F)
Dewpoint: 26.0°C (79°F) [RH = 84%]
Pressure (altimeter): 29.70 inches Hg (1006.0 mb)
Winds: from the ENE (70 degrees) at 3 MPH (3 knots; 1.5 m/s)
Visibility: 2.49 miles (4.01 km)
Ceiling: 8000 feet AGL
Clouds: few clouds at 1500 feet AGL
scattered clouds at 2000 feet AGL
few clouds at 2500 feet AGL
broken clouds at 8000 feet AGL
Weather: HZ  (haze)

METAR text: VAAH 181400Z 05003KT 4000 HZ FEW015 SCT020 FEW025TCU BKN080 29/26 Q1006 TEMPO 3000
Conditions at: VAAH (AHMADABAD , IN) observed 1400 UTC 18 August 2019
Temperature: 29.0°C (84°F)
Dewpoint: 26.0°C (79°F) [RH = 84%]
Pressure (altimeter): 29.70 inches Hg (1006.0 mb)
Winds: from the NE (50 degrees) at 3 MPH (3 knots; 1.5 m/s)
Visibility: 2.49 miles (4.01 km)
Ceiling: 8000 feet AGL
Clouds: few clouds at 1500 feet AGL
scattered clouds at 2000 feet AGL
few clouds at 2500 feet AGL
broken clouds at 8000 feet AGL
Weather: HZ  (haze)

METAR text: VAAH 181330Z 00000KT 4000 HZ FEW020 SCT025 FEW030TCU 30/25 Q1005 NOSIG
Conditions at: VAAH (AHMADABAD , IN) observed 1330 UTC 18 August 2019
Temperature: 30.0°C (86°F)
Dewpoint: 25.0°C (77°F) [RH = 75%]
Pressure (altimeter): 29.68 inches Hg (1005.0 mb)
Winds: calm
Visibility: 2.49 miles (4.01 km)
Ceiling: at least 12,000 feet AGL
Clouds: few clouds at 2000 feet AGL
scattered clouds at 2500 feet AGL
few clouds at 3000 feet AGL
Weather: HZ  (haze)

METAR text: VAAH 181300Z 21005KT 4000 HZ SCT020 SCT025 FEW030TCU 30/25 Q1005 NOSIG
Conditions at: VAAH (AHMADABAD , IN) observed 1300 UTC 18 August 2019
Temperature: 30.0°C (86°F)
Dewpoint: 25.0°C (77°F) [RH = 75%]
Pressure (altimeter): 29.68 inches Hg (1005.0 mb)
Winds: from the SSW (210 degrees) at 6 MPH (5 knots; 2.6 m/s)
Visibility: 2.49 miles (4.01 km)
Ceiling: at least 12,000 feet AGL
Clouds: scattered clouds at 2000 feet AGL
scattered clouds at 2500 feet AGL
few clouds at 3000 feet AGL
Weather: HZ  (haze)

METAR text: VAAH 181230Z 22006KT 5000 HZ SCT020 SCT025 FEW030TCU 32/26 Q1005 BECMG 4000M
Conditions at: VAAH (AHMADABAD , IN) observed 1230 UTC 18 August 2019
Temperature: 32.0°C (90°F)
Dewpoint: 26.0°C (79°F) [RH = 71%]
Pressure (altimeter): 29.68 inches Hg (1005.0 mb)
Winds: from the SW (220 degrees) at 7 MPH (6 knots; 3.1 m/s)
Visibility: 3 miles ( 5 km)
Ceiling: at least 12,000 feet AGL
Clouds: scattered clouds at 2000 feet AGL
scattered clouds at 2500 feet AGL
few clouds at 3000 feet AGL
Weather: HZ  (haze)

METAR text: VAAH 181200Z 20004KT 5000 HZ SCT020 SCT025 FEW030TCU 32/26 Q1005 NOSIG
Conditions at: VAAH (AHMADABAD , IN) observed 1200 UTC 18 August 2019
Temperature: 32.0°C (90°F)
Dewpoint: 26.0°C (79°F) [RH = 71%]
Pressure (altimeter): 29.68 inches Hg (1005.0 mb)
Winds: from the SSW (200 degrees) at 5 MPH (4 knots; 2.1 m/s)
Visibility: 3 miles ( 5 km)
Ceiling: at least 12,000 feet AGL
Clouds: scattered clouds at 2000 feet AGL
scattered clouds at 2500 feet AGL
few clouds at 3000 feet AGL
Weather: HZ  (haze)

METAR text: VAAH 181130Z 22003KT 5000 HZ SCT020 SCT025 32/25 Q1005 NOSIG
Conditions at: VAAH (AHMADABAD , IN) observed 1130 UTC 18 August 2019
Temperature: 32.0°C (90°F)
Dewpoint: 25.0°C (77°F) [RH = 67%]
Pressure (altimeter): 29.68 inches Hg (1005.0 mb)
Winds: from the SW (220 degrees) at 3 MPH (3 knots; 1.5 m/s)
Visibility: 3 miles ( 5 km)
Ceiling: at least 12,000 feet AGL
Clouds: scattered clouds at 2000 feet AGL
scattered clouds at 2500 feet AGL
Weather: HZ  (haze)

METAR text: VAAH 181100Z 28004KT 5000 HZ SCT020 SCT025 31/26 Q1005 NOSIG
Conditions at: VAAH (AHMADABAD , IN) observed 1100 UTC 18 August 2019
Temperature: 31.0°C (88°F)
Dewpoint: 26.0°C (79°F) [RH = 75%]
Pressure (altimeter): 29.68 inches Hg (1005.0 mb)
Winds: from the W (280 degrees) at 5 MPH (4 knots; 2.1 m/s)
Visibility: 3 miles ( 5 km)
Ceiling: at least 12,000 feet AGL
Clouds: scattered clouds at 2000 feet AGL
scattered clouds at 2500 feet AGL
Weather: HZ  (haze)

METAR text: VAAH 181030Z 26005KT 5000 HZ SCT020 SCT025 32/26 Q1005 NOSIG
Conditions at: VAAH (AHMADABAD , IN) observed 1030 UTC 18 August 2019
Temperature: 32.0°C (90°F)
Dewpoint: 26.0°C (79°F) [RH = 71%]
Pressure (altimeter): 29.68 inches Hg (1005.0 mb)
Winds: from the W (260 degrees) at 6 MPH (5 knots; 2.6 m/s)
Visibility: 3 miles ( 5 km)
Ceiling: at least 12,000 feet AGL
Clouds: scattered clouds at 2000 feet AGL
scattered clouds at 2500 feet AGL
Weather: HZ  (haze)

METAR text: VAAH 181000Z 27003KT 5000 HZ SCT020 SCT025 33/26 Q1005 NOSIG
Conditions at: VAAH (AHMADABAD , IN) observed 1000 UTC 18 August 2019
Temperature: 33.0°C (91°F)
Dewpoint: 26.0°C (79°F) [RH = 67%]
Pressure (altimeter): 29.68 inches Hg (1005.0 mb)
Winds: from the W (270 degrees) at 3 MPH (3 knots; 1.5 m/s)
Visibility: 3 miles ( 5 km)
Ceiling: at least 12,000 feet AGL
Clouds: scattered clouds at 2000 feet AGL
scattered clouds at 2500 feet AGL
Weather: HZ  (haze)

METAR text: VAAH 180930Z 23005KT 5000 HZ FEW020 SCT025 32/26 Q1006 NOSIG
Conditions at: VAAH (AHMADABAD , IN) observed 0930 UTC 18 August 2019
Temperature: 32.0°C (90°F)
Dewpoint: 26.0°C (79°F) [RH = 71%]
Pressure (altimeter): 29.70 inches Hg (1006.0 mb)
Winds: from the SW (230 degrees) at 6 MPH (5 knots; 2.6 m/s)
Visibility: 3 miles ( 5 km)
Ceiling: at least 12,000 feet AGL
Clouds: few clouds at 2000 feet AGL
scattered clouds at 2500 feet AGL
Weather: HZ  (haze)

METAR text: VAAH 180900Z 26005KT 5000 HZ FEW020 SCT025 BKN080 32/26 Q1006 NOSIG
Conditions at: VAAH (AHMADABAD , IN) observed 0900 UTC 18 August 2019
Temperature: 32.0°C (90°F)
Dewpoint: 26.0°C (79°F) [RH = 71%]
Pressure (altimeter): 29.70 inches Hg (1006.0 mb)
Winds: from the W (260 degrees) at 6 MPH (5 knots; 2.6 m/s)
Visibility: 3 miles ( 5 km)
Ceiling: 8000 feet AGL
Clouds: few clouds at 2000 feet AGL
scattered clouds at 2500 feet AGL
broken clouds at 8000 feet AGL
Weather: HZ  (haze)

METAR text: VAAH 180830Z 25004KT 5000 HZ FEW020 SCT025 BKN080 32/26 Q1006 NOSIG
Conditions at: VAAH (AHMADABAD , IN) observed 0830 UTC 18 August 2019
Temperature: 32.0°C (90°F)
Dewpoint: 26.0°C (79°F) [RH = 71%]
Pressure (altimeter): 29.70 inches Hg (1006.0 mb)
Winds: from the WSW (250 degrees) at 5 MPH (4 knots; 2.1 m/s)
Visibility: 3 miles ( 5 km)
Ceiling: 8000 feet AGL
Clouds: few clouds at 2000 feet AGL
scattered clouds at 2500 feet AGL
broken clouds at 8000 feet AGL
Weather: HZ  (haze)

METAR text: VAAH 180800Z 26007KT 5000 HZ FEW020 SCT025 BKN080 31/27 Q1007 NOSIG
Conditions at: VAAH (AHMADABAD , IN) observed 0800 UTC 18 August 2019
Temperature: 31.0°C (88°F)
Dewpoint: 27.0°C (81°F) [RH = 79%]
Pressure (altimeter): 29.73 inches Hg (1007.0 mb)
Winds: from the W (260 degrees) at 8 MPH (7 knots; 3.6 m/s)
Visibility: 3 miles ( 5 km)
Ceiling: 8000 feet AGL
Clouds: few clouds at 2000 feet AGL
scattered clouds at 2500 feet AGL
broken clouds at 8000 feet AGL
Weather: HZ  (haze)

METAR text: VAAH 180730Z 26006KT 5000 HZ FEW020 SCT025 BKN080 31/25 Q1007 NOSIG
Conditions at: VAAH (AHMADABAD , IN) observed 0730 UTC 18 August 2019
Temperature: 31.0°C (88°F)
Dewpoint: 25.0°C (77°F) [RH = 71%]
Pressure (altimeter): 29.73 inches Hg (1007.0 mb)
Winds: from the W (260 degrees) at 7 MPH (6 knots; 3.1 m/s)
Visibility: 3 miles ( 5 km)
Ceiling: 8000 feet AGL
Clouds: few clouds at 2000 feet AGL
scattered clouds at 2500 feet AGL
broken clouds at 8000 feet AGL
Weather: HZ  (haze)

METAR text: VAAH 180700Z 25006KT 5000 HZ FEW020 SCT025 BKN080 30/26 Q1007 NOSIG
Conditions at: VAAH (AHMADABAD , IN) observed 0700 UTC 18 August 2019
Temperature: 30.0°C (86°F)
Dewpoint: 26.0°C (79°F) [RH = 79%]
Pressure (altimeter): 29.73 inches Hg (1007.0 mb)
Winds: from the WSW (250 degrees) at 7 MPH (6 knots; 3.1 m/s)
Visibility: 3 miles ( 5 km)
Ceiling: 8000 feet AGL
Clouds: few clouds at 2000 feet AGL
scattered clouds at 2500 feet AGL
broken clouds at 8000 feet AGL
Weather: HZ  (haze)

METAR text: VAAH 180630Z 29007KT 5000 HZ FEW020 SCT025 BKN080 31/26 Q1007 NOSIG
Conditions at: VAAH (AHMADABAD , IN) observed 0630 UTC 18 August 2019
Temperature: 31.0°C (88°F)
Dewpoint: 26.0°C (79°F) [RH = 75%]
Pressure (altimeter): 29.73 inches Hg (1007.0 mb)
Winds: from the WNW (290 degrees) at 8 MPH (7 knots; 3.6 m/s)
Visibility: 3 miles ( 5 km)
Ceiling: 8000 feet AGL
Clouds: few clouds at 2000 feet AGL
scattered clouds at 2500 feet AGL
broken clouds at 8000 feet AGL
Weather: HZ  (haze)

METAR text: VAAH 180600Z 24008KT 4000 HZ FEW020 SCT025 BKN080 30/26 Q1008 NOSIG
Conditions at: VAAH (AHMADABAD , IN) observed 0600 UTC 18 August 2019
Temperature: 30.0°C (86°F)
Dewpoint: 26.0°C (79°F) [RH = 79%]
Pressure (altimeter): 29.76 inches Hg (1008.0 mb)
Winds: from the WSW (240 degrees) at 9 MPH (8 knots; 4.1 m/s)
Visibility: 2.49 miles (4.01 km)
Ceiling: 8000 feet AGL
Clouds: few clouds at 2000 feet AGL
scattered clouds at 2500 feet AGL
broken clouds at 8000 feet AGL
Weather: HZ  (haze)

METAR text: VAAH 180530Z 25007KT 4000 HZ FEW020 SCT025 BKN080 30/26 Q1008 NOSIG
Conditions at: VAAH (AHMADABAD , IN) observed 0530 UTC 18 August 2019
Temperature: 30.0°C (86°F)
Dewpoint: 26.0°C (79°F) [RH = 79%]
Pressure (altimeter): 29.76 inches Hg (1008.0 mb)
Winds: from the WSW (250 degrees) at 8 MPH (7 knots; 3.6 m/s)
Visibility: 2.49 miles (4.01 km)
Ceiling: 8000 feet AGL
Clouds: few clouds at 2000 feet AGL
scattered clouds at 2500 feet AGL
broken clouds at 8000 feet AGL
Weather: HZ  (haze)

METAR text: VAAH 180500Z 24008KT 3000 BR FEW020 SCT025 BKN080 29/25 Q1008 BECMG 4000
Conditions at: VAAH (AHMADABAD , IN) observed 0500 UTC 18 August 2019
Temperature: 29.0°C (84°F)
Dewpoint: 25.0°C (77°F) [RH = 79%]
Pressure (altimeter): 29.76 inches Hg (1008.0 mb)
Winds: from the WSW (240 degrees) at 9 MPH (8 knots; 4.1 m/s)
Visibility: 1.86 miles (2.99 km)
Ceiling: 8000 feet AGL
Clouds: few clouds at 2000 feet AGL
scattered clouds at 2500 feet AGL
broken clouds at 8000 feet AGL
Weather: BR  (mist)

METAR text: VAAH 180430Z 23007KT 3000 BR FEW020 BKN080 28/25 Q1008 NOSIG
Conditions at: VAAH (AHMADABAD , IN) observed 0430 UTC 18 August 2019
Temperature: 28.0°C (82°F)
Dewpoint: 25.0°C (77°F) [RH = 84%]
Pressure (altimeter): 29.76 inches Hg (1008.0 mb)
Winds: from the SW (230 degrees) at 8 MPH (7 knots; 3.6 m/s)
Visibility: 1.86 miles (2.99 km)
Ceiling: 8000 feet AGL
Clouds: few clouds at 2000 feet AGL
broken clouds at 8000 feet AGL
Weather: BR  (mist)

METAR text: VAAH 180400Z 24007KT 3000 BR FEW020 BKN080 28/25 Q1007 NOSIG
Conditions at: VAAH (AHMADABAD , IN) observed 0400 UTC 18 August 2019
Temperature: 28.0°C (82°F)
Dewpoint: 25.0°C (77°F) [RH = 84%]
Pressure (altimeter): 29.73 inches Hg (1007.0 mb)
Winds: from the WSW (240 degrees) at 8 MPH (7 knots; 3.6 m/s)
Visibility: 1.86 miles (2.99 km)
Ceiling: 8000 feet AGL
Clouds: few clouds at 2000 feet AGL
broken clouds at 8000 feet AGL
Weather: BR  (mist)

METAR text: VAAH 180330Z 24006KT 2500 BR FEW020 BKN080 27/25 Q1007 BECMG 3000
Conditions at: VAAH (AHMADABAD , IN) observed 0330 UTC 18 August 2019
Temperature: 27.0°C (81°F)
Dewpoint: 25.0°C (77°F) [RH = 89%]
Pressure (altimeter): 29.73 inches Hg (1007.0 mb)
Winds: from the WSW (240 degrees) at 7 MPH (6 knots; 3.1 m/s)
Visibility: 1.55 miles (2.49 km)
Ceiling: 8000 feet AGL
Clouds: few clouds at 2000 feet AGL
broken clouds at 8000 feet AGL
Weather: BR  (mist)

METAR text: VAAH 180300Z 26007KT 2500 BR FEW020 BKN080 27/25 Q1007 NOSIG
Conditions at: VAAH (AHMADABAD , IN) observed 0300 UTC 18 August 2019
Temperature: 27.0°C (81°F)
Dewpoint: 25.0°C (77°F) [RH = 89%]
Pressure (altimeter): 29.73 inches Hg (1007.0 mb)
Winds: from the W (260 degrees) at 8 MPH (7 knots; 3.6 m/s)
Visibility: 1.55 miles (2.49 km)
Ceiling: 8000 feet AGL
Clouds: few clouds at 2000 feet AGL
broken clouds at 8000 feet AGL
Weather: BR  (mist)

METAR text: VAAH 180230Z 24005KT 2500 BR FEW020 BKN080 26/25 Q1007 TEMPO 2000
Conditions at: VAAH (AHMADABAD , IN) observed 0230 UTC 18 August 2019
Temperature: 26.0°C (79°F)
Dewpoint: 25.0°C (77°F) [RH = 94%]
Pressure (altimeter): 29.73 inches Hg (1007.0 mb)
Winds: from the WSW (240 degrees) at 6 MPH (5 knots; 2.6 m/s)
Visibility: 1.55 miles (2.49 km)
Ceiling: 8000 feet AGL
Clouds: few clouds at 2000 feet AGL
broken clouds at 8000 feet AGL
Weather: BR  (mist)

METAR text: VAAH 180200Z 23005KT 2500 BR FEW015 SCT020 BKN080 26/25 Q1007 TEMPO 2000
Conditions at: VAAH (AHMADABAD , IN) observed 0200 UTC 18 August 2019
Temperature: 26.0°C (79°F)
Dewpoint: 25.0°C (77°F) [RH = 94%]
Pressure (altimeter): 29.73 inches Hg (1007.0 mb)
Winds: from the SW (230 degrees) at 6 MPH (5 knots; 2.6 m/s)
Visibility: 1.55 miles (2.49 km)
Ceiling: 8000 feet AGL
Clouds: few clouds at 1500 feet AGL
scattered clouds at 2000 feet AGL
broken clouds at 8000 feet AGL
Weather: BR  (mist)

METAR text: VAAH 180130Z 23004KT 3000 HZ FEW015 SCT020 BKN080 26/25 Q1006 TEMPO 2000
Conditions at: VAAH (AHMADABAD , IN) observed 0130 UTC 18 August 2019
Temperature: 26.0°C (79°F)
Dewpoint: 25.0°C (77°F) [RH = 94%]
Pressure (altimeter): 29.70 inches Hg (1006.0 mb)
Winds: from the SW (230 degrees) at 5 MPH (4 knots; 2.1 m/s)
Visibility: 1.86 miles (2.99 km)
Ceiling: 8000 feet AGL
Clouds: few clouds at 1500 feet AGL
scattered clouds at 2000 feet AGL
broken clouds at 8000 feet AGL
Weather: HZ  (haze)

METAR text: VAAH 180100Z 23004KT 3000 HZ FEW015 SCT020 BKN080 26/25 Q1006 NOSIG
Conditions at: VAAH (AHMADABAD , IN) observed 0100 UTC 18 August 2019
Temperature: 26.0°C (79°F)
Dewpoint: 25.0°C (77°F) [RH = 94%]
Pressure (altimeter): 29.70 inches Hg (1006.0 mb)
Winds: from the SW (230 degrees) at 5 MPH (4 knots; 2.1 m/s)
Visibility: 1.86 miles (2.99 km)
Ceiling: 8000 feet AGL
Clouds: few clouds at 1500 feet AGL
scattered clouds at 2000 feet AGL
broken clouds at 8000 feet AGL
Weather: HZ  (haze)

METAR text: VAAH 180030Z 23006KT 3000 HZ FEW015 SCT020 BKN080 26/25 Q1006 NOSIG
Conditions at: VAAH (AHMADABAD , IN) observed 0030 UTC 18 August 2019
Temperature: 26.0°C (79°F)
Dewpoint: 25.0°C (77°F) [RH = 94%]
Pressure (altimeter): 29.70 inches Hg (1006.0 mb)
Winds: from the SW (230 degrees) at 7 MPH (6 knots; 3.1 m/s)
Visibility: 1.86 miles (2.99 km)
Ceiling: 8000 feet AGL
Clouds: few clouds at 1500 feet AGL
scattered clouds at 2000 feet AGL
broken clouds at 8000 feet AGL
Weather: HZ  (haze)

METAR text: VAAH 180000Z 22005KT 3000 HZ FEW015 SCT020 BKN080 26/25 Q1006 NOSIG
Conditions at: VAAH (AHMADABAD , IN) observed 0000 UTC 18 August 2019
Temperature: 26.0°C (79°F)
Dewpoint: 25.0°C (77°F) [RH = 94%]
Pressure (altimeter): 29.70 inches Hg (1006.0 mb)
Winds: from the SW (220 degrees) at 6 MPH (5 knots; 2.6 m/s)
Visibility: 1.86 miles (2.99 km)
Ceiling: 8000 feet AGL
Clouds: few clouds at 1500 feet AGL
scattered clouds at 2000 feet AGL
broken clouds at 8000 feet AGL
Weather: HZ  (haze)

METAR text: VAAH 172330Z 22007KT 3000 HZ FEW015 SCT020 BKN080 26/25 Q1006 NOSIG
Conditions at: VAAH (AHMADABAD , IN) observed 2330 UTC 17 August 2019
Temperature: 26.0°C (79°F)
Dewpoint: 25.0°C (77°F) [RH = 94%]
Pressure (altimeter): 29.70 inches Hg (1006.0 mb)
Winds: from the SW (220 degrees) at 8 MPH (7 knots; 3.6 m/s)
Visibility: 1.86 miles (2.99 km)
Ceiling: 8000 feet AGL
Clouds: few clouds at 1500 feet AGL
scattered clouds at 2000 feet AGL
broken clouds at 8000 feet AGL
Weather: HZ  (haze)

METAR text: VAAH 172300Z 22006KT 3000 HZ FEW015 SCT020 BKN080 26/25 Q1005 NOSIG
Conditions at: VAAH (AHMADABAD , IN) observed 2300 UTC 17 August 2019
Temperature: 26.0°C (79°F)
Dewpoint: 25.0°C (77°F) [RH = 94%]
Pressure (altimeter): 29.68 inches Hg (1005.0 mb)
Winds: from the SW (220 degrees) at 7 MPH (6 knots; 3.1 m/s)
Visibility: 1.86 miles (2.99 km)
Ceiling: 8000 feet AGL
Clouds: few clouds at 1500 feet AGL
scattered clouds at 2000 feet AGL
broken clouds at 8000 feet AGL
Weather: HZ  (haze)

METAR text: VAAH 172230Z 22007KT 3000 HZ FEW015 SCT020 BKN080 26/25 Q1005 NOSIG
Conditions at: VAAH (AHMADABAD , IN) observed 2230 UTC 17 August 2019
Temperature: 26.0°C (79°F)
Dewpoint: 25.0°C (77°F) [RH = 94%]
Pressure (altimeter): 29.68 inches Hg (1005.0 mb)
Winds: from the SW (220 degrees) at 8 MPH (7 knots; 3.6 m/s)
Visibility: 1.86 miles (2.99 km)
Ceiling: 8000 feet AGL
Clouds: few clouds at 1500 feet AGL
scattered clouds at 2000 feet AGL
broken clouds at 8000 feet AGL
Weather: HZ  (haze)

METAR text: VAAH 172200Z 22007KT 3000 HZ FEW015 SCT020 BKN080 26/25 Q1005 NOSIG
Conditions at: VAAH (AHMADABAD , IN) observed 2200 UTC 17 August 2019
Temperature: 26.0°C (79°F)
Dewpoint: 25.0°C (77°F) [RH = 94%]
Pressure (altimeter): 29.68 inches Hg (1005.0 mb)
Winds: from the SW (220 degrees) at 8 MPH (7 knots; 3.6 m/s)
Visibility: 1.86 miles (2.99 km)
Ceiling: 8000 feet AGL
Clouds: few clouds at 1500 feet AGL
scattered clouds at 2000 feet AGL
broken clouds at 8000 feet AGL
Weather: HZ  (haze)

METAR text: VAAH 172130Z 22009KT 3000 HZ FEW015 SCT020 BKN080 26/26 Q1005 NOSIG
Conditions at: VAAH (AHMADABAD , IN) observed 2130 UTC 17 August 2019
Temperature: 26.0°C (79°F)
Dewpoint: 26.0°C (79°F) [RH = 100%]
Pressure (altimeter): 29.68 inches Hg (1005.0 mb)
Winds: from the SW (220 degrees) at 10 MPH (9 knots; 4.6 m/s)
Visibility: 1.86 miles (2.99 km)
Ceiling: 8000 feet AGL
Clouds: few clouds at 1500 feet AGL
scattered clouds at 2000 feet AGL
broken clouds at 8000 feet AGL
Weather: HZ  (haze)

METAR text: VAAH 172100Z 22007KT 3000 HZ FEW015 SCT020 BKN080 26/26 Q1005 NOSIG
Conditions at: VAAH (AHMADABAD , IN) observed 2100 UTC 17 August 2019
Temperature: 26.0°C (79°F)
Dewpoint: 26.0°C (79°F) [RH = 100%]
Pressure (altimeter): 29.68 inches Hg (1005.0 mb)
Winds: from the SW (220 degrees) at 8 MPH (7 knots; 3.6 m/s)
Visibility: 1.86 miles (2.99 km)
Ceiling: 8000 feet AGL
Clouds: few clouds at 1500 feet AGL
scattered clouds at 2000 feet AGL
broken clouds at 8000 feet AGL
Weather: HZ  (haze)

METAR text: VAAH 172030Z 22008KT 3000 HZ FEW015 SCT020 BKN080 26/26 Q1005 NOSIG
Conditions at: VAAH (AHMADABAD , IN) observed 2030 UTC 17 August 2019
Temperature: 26.0°C (79°F)
Dewpoint: 26.0°C (79°F) [RH = 100%]
Pressure (altimeter): 29.68 inches Hg (1005.0 mb)
Winds: from the SW (220 degrees) at 9 MPH (8 knots; 4.1 m/s)
Visibility: 1.86 miles (2.99 km)
Ceiling: 8000 feet AGL
Clouds: few clouds at 1500 feet AGL
scattered clouds at 2000 feet AGL
broken clouds at 8000 feet AGL
Weather: HZ  (haze)

METAR text: VAAH 172000Z 23005KT 3000 HZ FEW015 SCT020 BKN080 26/26 Q1005 NOSIG
Conditions at: VAAH (AHMADABAD , IN) observed 2000 UTC 17 August 2019
Temperature: 26.0°C (79°F)
Dewpoint: 26.0°C (79°F) [RH = 100%]
Pressure (altimeter): 29.68 inches Hg (1005.0 mb)
Winds: from the SW (230 degrees) at 6 MPH (5 knots; 2.6 m/s)
Visibility: 1.86 miles (2.99 km)
Ceiling: 8000 feet AGL
Clouds: few clouds at 1500 feet AGL
scattered clouds at 2000 feet AGL
broken clouds at 8000 feet AGL
Weather: HZ  (haze)

METAR text: VAAH 171930Z 22006KT 3000 HZ FEW015 SCT020 BKN080 26/26 Q1005 NOSIG
Conditions at: VAAH (AHMADABAD , IN) observed 1930 UTC 17 August 2019
Temperature: 26.0°C (79°F)
Dewpoint: 26.0°C (79°F) [RH = 100%]
Pressure (altimeter): 29.68 inches Hg (1005.0 mb)
Winds: from the SW (220 degrees) at 7 MPH (6 knots; 3.1 m/s)
Visibility: 1.86 miles (2.99 km)
Ceiling: 8000 feet AGL
Clouds: few clouds at 1500 feet AGL
scattered clouds at 2000 feet AGL
broken clouds at 8000 feet AGL
Weather: HZ  (haze)

METAR text: VAAH 171900Z 23006KT 3000 HZ FEW015 SCT020 BKN080 26/26 Q1005 NOSIG
Conditions at: VAAH (AHMADABAD , IN) observed 1900 UTC 17 August 2019
Temperature: 26.0°C (79°F)
Dewpoint: 26.0°C (79°F) [RH = 100%]
Pressure (altimeter): 29.68 inches Hg (1005.0 mb)
Winds: from the SW (230 degrees) at 7 MPH (6 knots; 3.1 m/s)
Visibility: 1.86 miles (2.99 km)
Ceiling: 8000 feet AGL
Clouds: few clouds at 1500 feet AGL
scattered clouds at 2000 feet AGL
broken clouds at 8000 feet AGL
Weather: HZ  (haze)

METAR text: VAAH 171830Z 23007KT 3000 HZ FEW015 SCT020 BKN080 26/26 Q1005 NOSIG
Conditions at: VAAH (AHMADABAD , IN) observed 1830 UTC 17 August 2019
Temperature: 26.0°C (79°F)
Dewpoint: 26.0°C (79°F) [RH = 100%]
Pressure (altimeter): 29.68 inches Hg (1005.0 mb)
Winds: from the SW (230 degrees) at 8 MPH (7 knots; 3.6 m/s)
Visibility: 1.86 miles (2.99 km)
Ceiling: 8000 feet AGL
Clouds: few clouds at 1500 feet AGL
scattered clouds at 2000 feet AGL
broken clouds at 8000 feet AGL
Weather: HZ  (haze)

METAR text: VAAH 171800Z 22007KT 3000 HZ FEW015 SCT020 BKN080 26/26 Q1006 NOSIG
Conditions at: VAAH (AHMADABAD , IN) observed 1800 UTC 17 August 2019
Temperature: 26.0°C (79°F)
Dewpoint: 26.0°C (79°F) [RH = 100%]
Pressure (altimeter): 29.70 inches Hg (1006.0 mb)
Winds: from the SW (220 degrees) at 8 MPH (7 knots; 3.6 m/s)
Visibility: 1.86 miles (2.99 km)
Ceiling: 8000 feet AGL
Clouds: few clouds at 1500 feet AGL
scattered clouds at 2000 feet AGL
broken clouds at 8000 feet AGL
Weather: HZ  (haze)

METAR text: VAAH 171730Z 21006KT 2500 -DZ SCT015 SCT020 OVC080 26/26 Q1006 TEMPO 2000
Conditions at: VAAH (AHMADABAD , IN) observed 1730 UTC 17 August 2019
Temperature: 26.0°C (79°F)
Dewpoint: 26.0°C (79°F) [RH = 100%]
Pressure (altimeter): 29.70 inches Hg (1006.0 mb)
Winds: from the SSW (210 degrees) at 7 MPH (6 knots; 3.1 m/s)
Visibility: 1.55 miles (2.49 km)
Ceiling: 8000 feet AGL
Clouds: scattered clouds at 1500 feet AGL
scattered clouds at 2000 feet AGL
overcast cloud deck at 8000 feet AGL
Weather: -DZ  (light drizzle)

METAR text: VAAH 171700Z 21006KT 3000 -RA SCT015 SCT020 OVC080 26/26 Q1005 TEMPO 2000
Conditions at: VAAH (AHMADABAD , IN) observed 1700 UTC 17 August 2019
Temperature: 26.0°C (79°F)
Dewpoint: 26.0°C (79°F) [RH = 100%]
Pressure (altimeter): 29.68 inches Hg (1005.0 mb)
Winds: from the SSW (210 degrees) at 7 MPH (6 knots; 3.1 m/s)
Visibility: 1.86 miles (2.99 km)
Ceiling: 8000 feet AGL
Clouds: scattered clouds at 1500 feet AGL
scattered clouds at 2000 feet AGL
overcast cloud deck at 8000 feet AGL
Weather: -RA  (light rain)

METAR text: VAAH 171630Z 21007KT 3000 -RA SCT015 SCT020 OVC080 26/26 Q1005 TEMPO 2000
Conditions at: VAAH (AHMADABAD , IN) observed 1630 UTC 17 August 2019
Temperature: 26.0°C (79°F)
Dewpoint: 26.0°C (79°F) [RH = 100%]
Pressure (altimeter): 29.68 inches Hg (1005.0 mb)
Winds: from the SSW (210 degrees) at 8 MPH (7 knots; 3.6 m/s)
Visibility: 1.86 miles (2.99 km)
Ceiling: 8000 feet AGL
Clouds: scattered clouds at 1500 feet AGL
scattered clouds at 2000 feet AGL
overcast cloud deck at 8000 feet AGL
Weather: -RA  (light rain)

METAR text: VAAH 171600Z 23007KT 3000 RA SCT015 SCT020 OVC080 26/26 Q1005 TEMPO 2000
Conditions at: VAAH (AHMADABAD , IN) observed 1600 UTC 17 August 2019
Temperature: 26.0°C (79°F)
Dewpoint: 26.0°C (79°F) [RH = 100%]
Pressure (altimeter): 29.68 inches Hg (1005.0 mb)
Winds: from the SW (230 degrees) at 8 MPH (7 knots; 3.6 m/s)
Visibility: 1.86 miles (2.99 km)
Ceiling: 8000 feet AGL
Clouds: scattered clouds at 1500 feet AGL
scattered clouds at 2000 feet AGL
overcast cloud deck at 8000 feet AGL
Weather: RA  (moderate rain)

METAR text: VAAH 171530Z 21010KT 3000 -RA FEW 015 SCT020 BKN080 27/26 Q1004 TEMPO 2000 RA
Conditions at: VAAH (AHMADABAD , IN) observed 1530 UTC 17 August 2019
Temperature: 27.0°C (81°F)
Dewpoint: 26.0°C (79°F) [RH = 94%]
Pressure (altimeter): 29.65 inches Hg (1004.0 mb)
Winds: from the SSW (210 degrees) at 12 MPH (10 knots; 5.1 m/s)
Visibility: 1.86 miles (2.99 km)
Ceiling: 8000 feet AGL
Clouds: few clouds at 1500 feet AGL
scattered clouds at 2000 feet AGL
broken clouds at 8000 feet AGL
Weather: -RA  (light rain)

METAR text: VAAH 171500Z 19006KT 4000 HZ SCT020 28/27 Q1004 NOSIG
Conditions at: VAAH (AHMADABAD , IN) observed 1500 UTC 17 August 2019
Temperature: 28.0°C (82°F)
Dewpoint: 27.0°C (81°F) [RH = 94%]
Pressure (altimeter): 29.65 inches Hg (1004.0 mb)
Winds: from the S (190 degrees) at 7 MPH (6 knots; 3.1 m/s)
Visibility: 2.49 miles (4.01 km)
Ceiling: at least 12,000 feet AGL
Clouds: scattered clouds at 2000 feet AGL
Weather: HZ  (haze)

METAR text: VAAH 171430Z 17005KT 4000 HZ SCT020 SCT025 29/26 Q1003 NOSIG
Conditions at: VAAH (AHMADABAD , IN) observed 1430 UTC 17 August 2019
Temperature: 29.0°C (84°F)
Dewpoint: 26.0°C (79°F) [RH = 84%]
Pressure (altimeter): 29.62 inches Hg (1003.0 mb)
Winds: from the S (170 degrees) at 6 MPH (5 knots; 2.6 m/s)
Visibility: 2.49 miles (4.01 km)
Ceiling: at least 12,000 feet AGL
Clouds: scattered clouds at 2000 feet AGL
scattered clouds at 2500 feet AGL
Weather: HZ  (haze)

METAR text: VAAH 171400Z 18005KT 4000 HZ FEW020 SCT025 29/26 Q1003 NOSIG
Conditions at: VAAH (AHMADABAD , IN) observed 1400 UTC 17 August 2019
Temperature: 29.0°C (84°F)
Dewpoint: 26.0°C (79°F) [RH = 84%]
Pressure (altimeter): 29.62 inches Hg (1003.0 mb)
Winds: from the S (180 degrees) at 6 MPH (5 knots; 2.6 m/s)
Visibility: 2.49 miles (4.01 km)
Ceiling: at least 12,000 feet AGL
Clouds: few clouds at 2000 feet AGL
scattered clouds at 2500 feet AGL
Weather: HZ  (haze)

METAR text: VAAH 171330Z 22004KT 4000 HZ FEW020 SCT025 30/25 Q1003 NOSIG
Conditions at: VAAH (AHMADABAD , IN) observed 1330 UTC 17 August 2019
Temperature: 30.0°C (86°F)
Dewpoint: 25.0°C (77°F) [RH = 75%]
Pressure (altimeter): 29.62 inches Hg (1003.0 mb)
Winds: from the SW (220 degrees) at 5 MPH (4 knots; 2.1 m/s)
Visibility: 2.49 miles (4.01 km)
Ceiling: at least 12,000 feet AGL
Clouds: few clouds at 2000 feet AGL
scattered clouds at 2500 feet AGL
Weather: HZ  (haze)

METAR text: VAAH 171300Z 23004KT 4000 HZ FEW020 SCT025 FEW030TCU 30/25 Q1003 NOSIG
Conditions at: VAAH (AHMADABAD , IN) observed 1300 UTC 17 August 2019
Temperature: 30.0°C (86°F)
Dewpoint: 25.0°C (77°F) [RH = 75%]
Pressure (altimeter): 29.62 inches Hg (1003.0 mb)
Winds: from the SW (230 degrees) at 5 MPH (4 knots; 2.1 m/s)
Visibility: 2.49 miles (4.01 km)
Ceiling: at least 12,000 feet AGL
Clouds: few clouds at 2000 feet AGL
scattered clouds at 2500 feet AGL
few clouds at 3000 feet AGL
Weather: HZ  (haze)

Forecast for: VAAH (AHMADABAD , IN)
Text: TAF VAAH 182300Z 1900/1909 23006KT 3000 BR FEW015 SCT020 BKN080
Forecast period: 0000 to 0900 UTC 19 August 2019
Forecast type: FROM: standard forecast or significant change
Winds: from the SW (230 degrees) at 7 MPH (6 knots; 3.1 m/s)
Visibility: 1.86 miles (2.99 km)
Ceiling: 8000 feet AGL
Clouds: few clouds at 1500 feet AGL
scattered clouds at 2000 feet AGL
broken clouds at 8000 feet AGL
Weather: BR  (mist)
Text: BECMG 1818/1820 4000 HZ
Forecast period: 1800 UTC 18 August 2019 to 0100 UTC 19 August 2019
Forecast type: BECOMING: Conditions expected to become as follows by 2000 UTC 18 August 2019
Winds: from the SW (230 degrees) at 7 MPH (6 knots; 3.1 m/s)
Visibility: 2.49 miles (4.01 km)
Ceiling: 8000 feet AGL
Clouds: few clouds at 1500 feet AGL
scattered clouds at 2000 feet AGL
broken clouds at 8000 feet AGL
Weather: HZ  (haze)
Text: BECMG 1901/1903 24005KT 2000 BR SCT015 SCT020
Forecast period: 0100 to 0500 UTC 19 August 2019
Forecast type: BECOMING: Conditions expected to become as follows by 0300 UTC 19 August 2019
Winds: from the WSW (240 degrees) at 6 MPH (5 knots; 2.6 m/s)
Visibility: 1.24 miles (2.00 km)
Ceiling: at least 12,000 feet AGL
Clouds: scattered clouds at 1500 feet AGL
scattered clouds at 2000 feet AGL
Weather: BR  (mist)
Text: BECMG 1905/1907 23008KT 5000HZ SCT020 SCT025
Forecast period: 0500 to 0900 UTC 19 August 2019
Forecast type: BECOMING: Conditions expected to become as follows by 0700 UTC 19 August 2019
Winds: from the SW (230 degrees) at 9 MPH (8 knots; 4.1 m/s)
Visibility: 1.24 miles (2.00 km)
Ceiling: at least 12,000 feet AGL
Clouds: scattered clouds at 2000 feet AGL
scattered clouds at 2500 feet AGL
Weather: HZ  (haze)